Terminal Aerodrome Forecast
Issued by NWS

Home | Current Version | Previous Version | Text Only | Print | Product List | Glossary On
Versions: 1 2 3 4 5 6 7 8 9 10 11 12 13 14 15 16 17 18
000
FTAK31 PAJN 040535
TAFAWG
TAF
PAWG 040535Z 0406/0506 VRB06KT P6SM VCSH SCT025 OVC040
      TEMPO 0406/0410 5SM -SHSN BKN025 OVC040
     FM041200 06010KT P6SM SCT030 SCT060
     FM041800 06012KT P6SM SKC WS020/07025KT
      AMD LTD TO CLD VIS AND WIND 0406/0415=

USA.gov is the U.S. government's official web portal to all federal, state and local government web resources and services.